Picacho, New Mexico
Current Conditions -  °F | °C
As of 11:51 AM on Friday 24 Oct 2014 (Local Time) from KROW Reporting Station
Clear Clear  
Wind Chill: 23°   Ceiling: Unl
Heat Index: 23°   Visibility: 10mi
Dew Point: 12°   Wind: 3mph
Humidity: 48%   Direction: NA
Pressure: 30.21"   Gusts: NA
Location:  33.41°N, 105.01°W
Report Text: KROW 241751Z VRB03KT 10SM CLR 23/12 A3021 RMK AO2 SLP181 T02330117 10233 20094 58000
Loading
Personal Weather Stations






























Interactive Weather Map
Tropical Storm Tracking
New forecast layout! Learn more

10-Day Weather Forecast

Advertisements
Track Severe Weather on mobile